Cohagen, Montana
Current Conditions -  °F | °C
As of 4:53 PM on Monday 20 Oct 2014 (Local Time) from KMLS Reporting Station
Clear Clear  
Wind Chill: 77°   Ceiling: Unl
Heat Index: 77°   Visibility: 10mi
Dew Point: 38°   Wind: 5mph
Humidity: 24%   Direction: 160°SSE
Pressure: 29.83"   Gusts: NA
Location:  47.05°N, 106.62°W
Report Text: KMLS 202253Z AUTO 16004KT 10SM CLR 25/03 A2983 RMK AO2 SLP089 T02500033
Loading
Personal Weather Stations






























Interactive Weather Map
Tropical Storm Tracking
New forecast layout! Learn more

10-Day Weather Forecast

Advertisements
Track Severe Weather on mobile